createdAt,value
2018-12-08T00:01:29.758Z,69.15
2018-12-08T00:03:58.022Z,68.84
2018-12-08T00:06:26.343Z,68.98
2018-12-08T00:08:54.637Z,68.31
2018-12-08T00:11:22.966Z,68.56
2018-12-08T00:13:51.600Z,68.74
2018-12-08T00:16:19.875Z,69.45
2018-12-08T00:18:48.557Z,69.10
2018-12-08T00:21:16.838Z,69.70
2018-12-08T00:23:45.375Z,69.22
2018-12-08T00:26:14.050Z,69.35
2018-12-08T00:28:42.392Z,69.34
2018-12-08T00:31:28.037Z,68.94
2018-12-08T00:33:56.289Z,69.84
2018-12-08T00:36:24.931Z,70.13
2018-12-08T00:38:53.175Z,69.24
2018-12-08T00:41:21.506Z,69.58
2018-12-08T00:43:49.765Z,68.35
2018-12-08T00:46:18.001Z,68.53
2018-12-08T00:48:46.716Z,68.63
2018-12-08T00:51:15.018Z,67.58
2018-12-08T00:53:43.277Z,68.47
2018-12-08T00:56:11.995Z,67.91
2018-12-08T00:58:40.288Z,67.30
2018-12-08T01:01:08.671Z,66.84
2018-12-08T01:03:36.973Z,66.25
2018-12-08T01:06:05.495Z,66.68
2018-12-08T01:08:33.832Z,66.28
2018-12-08T01:11:02.448Z,66.52
2018-12-08T01:13:30.776Z,65.62
2018-12-08T01:16:00.647Z,66.05
2018-12-08T01:18:28.925Z,65.99
2018-12-08T01:20:57.175Z,65.24
2018-12-08T01:23:26.225Z,66.12
2018-12-08T01:25:54.845Z,64.14
2018-12-08T01:28:23.080Z,64.01
2018-12-08T01:30:51.739Z,64.55
2018-12-08T01:33:20.289Z,63.75
2018-12-08T01:35:49.238Z,63.71
2018-12-08T01:38:17.518Z,63.79
2018-12-08T01:40:46.278Z,63.31
2018-12-08T01:43:14.527Z,63.40
2018-12-08T01:45:43.114Z,62.44
2018-12-08T01:48:11.289Z,62.50
2018-12-08T01:50:39.772Z,61.53
2018-12-08T01:53:09.094Z,60.89
2018-12-08T01:55:37.606Z,61.72
2018-12-08T01:58:06.383Z,60.80
2018-12-08T02:00:35.897Z,61.48
2018-12-08T02:03:05.102Z,61.90
2018-12-08T02:05:33.890Z,61.82
2018-12-08T02:08:02.622Z,61.74
2018-12-08T02:10:32.188Z,62.38
2018-12-08T02:13:00.899Z,63.21
2018-12-08T02:15:29.455Z,62.61
2018-12-08T02:17:57.871Z,63.21
2018-12-08T02:20:26.501Z,64.17
2018-12-08T02:22:54.903Z,65.49
2018-12-08T02:25:23.305Z,66.69
2018-12-08T02:27:52.480Z,67.14
2018-12-08T02:30:21.296Z,67.66
2018-12-08T02:32:51.595Z,68.37
2018-12-08T02:35:20.563Z,69.11
2018-12-08T02:37:49.103Z,69.71
2018-12-08T02:40:17.615Z,70.20
2018-12-08T02:42:46.203Z,69.33
2018-12-08T02:45:14.475Z,69.92
2018-12-08T02:47:42.801Z,70.57
2018-12-08T02:50:11.284Z,71.33
2018-12-08T02:52:41.169Z,70.93
2018-12-08T02:55:10.921Z,71.60
2018-12-08T02:57:39.494Z,71.31
2018-12-08T03:00:08.648Z,71.52
2018-12-08T03:02:37.193Z,71.67
2018-12-08T03:05:09.086Z,70.66
2018-12-08T03:07:37.553Z,70.21
2018-12-08T03:10:06.393Z,70.47
2018-12-08T03:12:34.886Z,71.05
2018-12-08T03:15:03.354Z,70.37
2018-12-08T03:17:31.884Z,70.38
2018-12-08T03:20:00.515Z,70.65
2018-12-08T03:22:29.231Z,71.88
2018-12-08T03:24:57.766Z,71.39
2018-12-08T03:27:26.630Z,71.99
2018-12-08T03:29:54.871Z,72.47
2018-12-08T03:32:23.408Z,72.70
2018-12-08T03:34:51.777Z,73.13
2018-12-08T03:37:20.106Z,73.24
2018-12-08T03:39:48.601Z,72.46
2018-12-08T03:42:16.949Z,71.15
2018-12-08T03:44:45.201Z,72.10
2018-12-08T03:47:13.517Z,72.49
2018-12-08T03:49:41.803Z,71.94
2018-12-08T03:52:10.099Z,72.66
2018-12-08T03:57:18.606Z,71.92
2018-12-08T03:59:46.924Z,71.81
2018-12-08T04:02:15.464Z,71.45
2018-12-08T04:04:44.762Z,72.18
2018-12-08T04:07:13.933Z,72.22
2018-12-08T04:09:42.358Z,71.89
2018-12-08T04:12:10.831Z,72.67
2018-12-08T04:14:40.330Z,73.02
2018-12-08T04:17:09.732Z,74.32
2018-12-08T04:19:38.926Z,73.46
2018-12-08T04:22:07.818Z,74.55
2018-12-08T04:24:38.136Z,74.94
2018-12-08T04:27:06.770Z,74.87
2018-12-08T04:29:34.957Z,74.80
2018-12-08T04:32:03.473Z,75.22
2018-12-08T04:34:31.749Z,75.64
2018-12-08T04:37:00.653Z,75.58
2018-12-08T04:39:28.929Z,74.99
2018-12-08T04:41:57.216Z,74.48
2018-12-08T04:44:26.428Z,74.28
2018-12-08T04:49:35.138Z,76.41
2018-12-08T04:52:03.740Z,75.13
2018-12-08T04:54:32.307Z,76.18
2018-12-08T04:57:00.657Z,75.83
2018-12-08T04:59:29.009Z,75.48
2018-12-08T05:01:57.798Z,76.07
2018-12-08T05:04:26.080Z,76.31
2018-12-08T05:06:54.679Z,76.70
2018-12-08T05:09:23.930Z,76.49
2018-12-08T05:11:52.740Z,76.60
2018-12-08T05:14:21.013Z,76.11
2018-12-08T05:16:49.607Z,76.91
2018-12-08T05:19:19.313Z,76.66
2018-12-08T05:21:48.088Z,76.23
2018-12-08T05:24:18.250Z,75.86
2018-12-08T05:26:47.728Z,75.15
2018-12-08T05:29:16.685Z,76.16
2018-12-08T05:31:45.124Z,75.55
2018-12-08T05:34:14.504Z,75.48
2018-12-08T05:36:42.972Z,75.71
2018-12-08T05:39:11.521Z,75.44
2018-12-08T05:41:39.766Z,76.03
2018-12-08T05:44:08.103Z,76.05
2018-12-08T05:46:36.419Z,76.34
2018-12-08T05:49:05.857Z,75.16
2018-12-08T05:51:34.093Z,76.20
2018-12-08T05:54:02.380Z,76.21
2018-12-08T05:56:30.710Z,75.13
2018-12-08T05:58:59.028Z,74.77
2018-12-08T06:01:27.855Z,74.87
2018-12-08T06:03:57.489Z,73.71
2018-12-08T06:06:26.400Z,73.64
2018-12-08T06:08:55.026Z,73.36
2018-12-08T06:11:23.302Z,73.35
2018-12-08T06:13:51.580Z,73.45
2018-12-08T06:16:19.773Z,73.41
2018-12-08T06:18:48.106Z,73.98
2018-12-08T06:21:16.740Z,73.81
2018-12-08T06:23:44.963Z,72.69
2018-12-08T06:26:20.312Z,73.15
2018-12-08T06:28:53.237Z,72.89
2018-12-08T06:31:21.904Z,72.25
2018-12-08T06:33:50.457Z,72.48
2018-12-08T06:36:18.792Z,71.78
2018-12-08T06:38:47.264Z,72.05
2018-12-08T06:41:16.490Z,72.00
2018-12-08T06:43:44.739Z,72.37
2018-12-08T06:46:13.044Z,71.57
2018-12-08T06:48:42.747Z,71.92
2018-12-08T06:51:11.783Z,71.94
2018-12-08T06:53:40.286Z,71.69
2018-12-08T06:56:08.462Z,72.07
2018-12-08T06:58:36.908Z,72.15
2018-12-08T07:01:05.235Z,71.95
2018-12-08T07:03:33.512Z,71.95
2018-12-08T07:06:01.953Z,72.25
2018-12-08T07:08:30.381Z,71.48
2018-12-08T07:10:59.192Z,71.34
2018-12-08T07:13:27.493Z,71.30
2018-12-08T07:15:55.748Z,71.51
2018-12-08T07:18:26.259Z,71.50
2018-12-08T07:20:54.990Z,70.97
2018-12-08T07:23:23.835Z,70.25
2018-12-08T07:25:52.332Z,70.68
2018-12-08T07:28:21.390Z,70.52
2018-12-08T07:30:49.888Z,70.21
2018-12-08T07:33:18.434Z,71.52
2018-12-08T07:35:46.807Z,70.77
2018-12-08T07:38:15.353Z,71.00
2018-12-08T07:40:43.875Z,70.83
2018-12-08T07:43:12.201Z,71.61
2018-12-08T07:45:40.515Z,71.54
2018-12-08T07:48:09.893Z,71.23
2018-12-08T07:50:38.547Z,71.12
2018-12-08T07:53:06.813Z,70.77
2018-12-08T07:55:35.383Z,71.32
2018-12-08T07:58:03.586Z,71.12
2018-12-08T08:00:32.073Z,70.59
2018-12-08T08:03:01.065Z,70.95
2018-12-08T08:05:29.538Z,70.12
2018-12-08T08:07:58.067Z,70.26
2018-12-08T08:10:29.409Z,70.93
2018-12-08T08:12:58.007Z,70.44
2018-12-08T08:15:26.698Z,69.89
2018-12-08T08:17:55.187Z,70.99
2018-12-08T08:20:23.503Z,70.18
2018-12-08T08:22:52.860Z,70.31
2018-12-08T08:25:22.227Z,70.21
2018-12-08T08:27:51.370Z,70.27
2018-12-08T08:30:19.751Z,69.44
2018-12-08T08:32:48.065Z,70.30
2018-12-08T08:35:16.379Z,69.49
2018-12-08T08:37:44.953Z,69.59
2018-12-08T08:40:14.443Z,69.27
2018-12-08T08:42:42.973Z,68.28
2018-12-08T08:45:11.551Z,68.82
2018-12-08T08:47:39.872Z,68.95
2018-12-08T08:50:10.898Z,68.39
2018-12-08T08:52:46.873Z,68.49
2018-12-08T08:55:15.157Z,68.11
2018-12-08T08:57:43.795Z,67.91
2018-12-08T09:00:14.826Z,68.24
2018-12-08T09:02:43.117Z,68.21
2018-12-08T09:05:12.241Z,68.12
2018-12-08T09:07:41.110Z,67.98
2018-12-08T09:10:11.203Z,68.46
2018-12-08T09:12:39.470Z,68.41
2018-12-08T09:15:08.598Z,68.22
2018-12-08T09:17:38.091Z,68.23
2018-12-08T09:20:10.313Z,67.27
2018-12-08T09:22:39.347Z,68.04
2018-12-08T09:25:09.330Z,67.99
2018-12-08T09:27:39.152Z,68.22
2018-12-08T09:30:10.976Z,68.14
2018-12-08T09:32:40.383Z,67.67
2018-12-08T09:35:08.812Z,68.42
2018-12-08T09:37:37.052Z,67.97
2018-12-08T09:40:07.490Z,68.15
2018-12-08T09:42:37.136Z,67.93
2018-12-08T09:45:06.107Z,67.95
2018-12-08T09:47:34.877Z,67.42
2018-12-08T09:50:04.865Z,67.99
2018-12-08T09:52:33.170Z,67.77
2018-12-08T09:55:01.513Z,67.83
2018-12-08T09:57:29.822Z,67.25
2018-12-08T09:59:58.750Z,66.94
2018-12-08T10:02:27.098Z,66.87
2018-12-08T10:04:57.140Z,67.60
2018-12-08T10:07:25.625Z,66.94
2018-12-08T10:09:54.209Z,67.87
2018-12-08T10:12:22.608Z,67.54
2018-12-08T10:14:51.478Z,67.62
2018-12-08T10:17:20.705Z,68.04
2018-12-08T10:19:49.024Z,66.53
2018-12-08T10:22:17.563Z,67.19
2018-12-08T10:24:47.386Z,66.89
2018-12-08T10:27:16.613Z,67.82
2018-12-08T10:29:45.297Z,67.83
2018-12-08T10:32:14.018Z,68.35
2018-12-08T10:34:43.458Z,69.56
2018-12-08T10:37:13.211Z,69.40
2018-12-08T10:39:41.521Z,70.24
2018-12-08T10:42:10.201Z,69.58
2018-12-08T10:44:38.551Z,70.37
2018-12-08T10:47:07.097Z,70.90
2018-12-08T10:49:35.366Z,71.48
2018-12-08T10:52:04.063Z,71.71
2018-12-08T10:54:34.864Z,72.74
2018-12-08T10:57:03.995Z,72.73
2018-12-08T10:59:33.231Z,72.70
2018-12-08T11:02:02.592Z,72.54
2018-12-08T11:04:33.537Z,73.24
2018-12-08T11:07:01.960Z,72.86
2018-12-08T11:09:31.076Z,72.29
2018-12-08T11:11:59.833Z,70.92
2018-12-08T11:14:29.144Z,71.46
2018-12-08T11:16:59.650Z,71.08
2018-12-08T11:19:28.159Z,71.13
2018-12-08T11:21:56.681Z,70.72
2018-12-08T11:24:25.207Z,71.21
2018-12-08T11:26:53.682Z,71.50
2018-12-08T11:29:22.405Z,70.04
2018-12-08T11:31:50.800Z,70.50
2018-12-08T11:34:19.528Z,70.19
2018-12-08T11:36:49.653Z,69.73
2018-12-08T11:39:18.059Z,70.83
2018-12-08T11:41:46.905Z,69.43
2018-12-08T11:44:15.764Z,70.95
2018-12-08T11:46:44.379Z,71.05
2018-12-08T11:49:12.958Z,71.36
2018-12-08T11:51:41.176Z,71.26
2018-12-08T11:54:09.869Z,70.69
2018-12-08T11:56:38.258Z,71.16
2018-12-08T11:59:06.690Z,71.55
2018-12-08T12:01:35.001Z,71.30
2018-12-08T12:04:03.337Z,71.38
2018-12-08T12:06:32.303Z,71.75
2018-12-08T12:09:01.568Z,72.36
2018-12-08T12:11:31.306Z,72.34
2018-12-08T12:13:59.706Z,72.53
2018-12-08T12:16:28.262Z,73.11
2018-12-08T12:18:56.551Z,73.15
2018-12-08T12:21:25.026Z,72.57
2018-12-08T12:23:53.517Z,72.38
2018-12-08T12:26:22.736Z,72.18
2018-12-08T12:28:51.062Z,71.37
2018-12-08T12:31:19.487Z,72.35
2018-12-08T12:33:47.787Z,72.20
2018-12-08T12:36:16.301Z,72.17
2018-12-08T12:38:45.987Z,72.46
2018-12-08T12:41:14.501Z,72.69
2018-12-08T12:43:42.968Z,72.00
2018-12-08T12:46:13.013Z,72.95
2018-12-08T12:48:41.476Z,73.31
2018-12-08T12:51:10.176Z,73.16
2018-12-08T12:53:39.301Z,72.90
2018-12-08T12:56:08.709Z,72.95
2018-12-08T12:58:38.371Z,72.39
2018-12-08T13:01:07.874Z,73.15
2018-12-08T13:03:36.772Z,73.16
2018-12-08T13:06:05.997Z,72.12
2018-12-08T13:08:35.986Z,71.78
2018-12-08T13:11:05.097Z,70.85
2018-12-08T13:13:34.129Z,70.38
2018-12-08T13:16:02.433Z,70.24
2018-12-08T13:18:31.064Z,70.44
2018-12-08T13:20:59.708Z,71.23
2018-12-08T13:23:29.902Z,71.87
2018-12-08T13:25:59.623Z,73.16
2018-12-08T13:28:28.386Z,74.16
2018-12-08T13:30:56.957Z,75.95
2018-12-08T13:33:25.801Z,75.88
2018-12-08T13:36:02.205Z,76.41
2018-12-08T13:38:31.270Z,77.80
2018-12-08T13:40:59.855Z,77.53
2018-12-08T13:43:28.991Z,75.62
2018-12-08T13:45:58.293Z,77.25
2018-12-08T13:48:28.993Z,75.89
2018-12-08T13:50:58.093Z,76.49
2018-12-08T13:53:26.747Z,76.55
2018-12-08T13:55:55.884Z,77.37
2018-12-08T13:58:24.235Z,76.89
2018-12-08T14:00:52.536Z,77.86
2018-12-08T14:03:21.675Z,77.36
2018-12-08T14:05:50.122Z,78.38
2018-12-08T14:08:19.414Z,78.00
2018-12-08T14:10:48.188Z,78.53
2018-12-08T14:13:17.084Z,79.35
2018-12-08T14:15:45.843Z,78.92
2018-12-08T14:18:14.406Z,80.12
2018-12-08T14:20:43.522Z,79.99
2018-12-08T14:23:12.091Z,80.82
2018-12-08T14:25:41.029Z,80.23
2018-12-08T14:28:09.630Z,80.02
2018-12-08T14:30:37.933Z,80.86
2018-12-08T14:33:06.858Z,81.20
2018-12-08T14:35:35.095Z,80.93
2018-12-08T14:38:03.971Z,81.50
2018-12-08T14:40:32.600Z,81.37
2018-12-08T14:43:01.905Z,81.00
2018-12-08T14:45:30.254Z,80.53
2018-12-08T14:47:59.200Z,80.45
2018-12-08T14:50:27.605Z,80.89
2018-12-08T14:52:55.956Z,80.71
2018-12-08T14:55:24.848Z,80.36
2018-12-08T14:57:53.179Z,80.35
2018-12-08T15:00:22.257Z,79.46
2018-12-08T15:02:51.388Z,80.27
2018-12-08T15:05:19.661Z,79.43
2018-12-08T15:07:47.917Z,79.52
2018-12-08T15:10:16.193Z,80.79
2018-12-08T15:12:45.006Z,80.88
2018-12-08T15:15:13.344Z,80.86
2018-12-08T15:17:41.634Z,80.86
2018-12-08T15:20:10.142Z,80.75
2018-12-08T15:22:38.908Z,80.52
2018-12-08T15:25:09.142Z,80.43
2018-12-08T15:27:37.579Z,80.58
2018-12-08T15:30:08.347Z,80.28
2018-12-08T15:32:36.614Z,79.37
2018-12-08T15:35:08.039Z,78.70
2018-12-08T15:37:36.377Z,79.02
2018-12-08T15:40:06.017Z,79.16
2018-12-08T15:42:34.341Z,78.40
2018-12-08T15:45:03.352Z,77.76
2018-12-08T15:47:31.651Z,78.05
2018-12-08T15:49:59.935Z,77.72
2018-12-08T15:52:29.015Z,76.64
2018-12-08T15:54:57.527Z,76.51
2018-12-08T15:57:25.860Z,77.19
2018-12-08T15:59:55.345Z,76.85
2018-12-08T16:02:24.189Z,76.63
2018-12-08T16:04:52.592Z,76.95
2018-12-08T16:07:21.149Z,76.55
2018-12-08T16:09:49.423Z,77.37
2018-12-08T16:12:17.699Z,77.39
2018-12-08T16:14:46.348Z,77.15
2018-12-08T16:17:15.818Z,77.07
2018-12-08T16:19:44.379Z,77.34
2018-12-08T16:22:12.694Z,77.69
2018-12-08T16:24:41.366Z,77.33
2018-12-08T16:27:09.583Z,77.28
2018-12-08T16:29:38.879Z,77.88
2018-12-08T16:32:07.764Z,77.67
2018-12-08T16:34:36.139Z,77.66
2018-12-08T16:37:04.500Z,77.89
2018-12-08T16:39:33.067Z,77.39
2018-12-08T16:42:02.207Z,77.71
2018-12-08T16:44:30.869Z,77.11
2018-12-08T16:46:59.161Z,76.58
2018-12-08T16:49:28.053Z,77.22
2018-12-08T16:51:56.847Z,77.57
2018-12-08T16:54:25.418Z,76.75
2018-12-08T16:56:53.733Z,77.37
2018-12-08T16:59:23.460Z,76.80
2018-12-08T17:01:53.893Z,77.48
2018-12-08T17:04:22.900Z,77.63
2018-12-08T17:06:51.193Z,76.68
2018-12-08T17:09:19.439Z,76.89
2018-12-08T17:11:47.748Z,77.55
2018-12-08T17:14:16.373Z,76.24
2018-12-08T17:16:45.815Z,77.19
2018-12-08T17:19:15.381Z,77.29
2018-12-08T17:21:43.719Z,77.25
2018-12-08T17:24:12.160Z,76.83
2018-12-08T17:26:41.523Z,76.88
2018-12-08T17:29:09.852Z,75.95
2018-12-08T17:31:38.689Z,76.48
2018-12-08T17:34:06.916Z,76.31
2018-12-08T17:36:35.787Z,76.71
2018-12-08T17:39:06.261Z,75.79
2018-12-08T17:41:35.759Z,76.01
2018-12-08T17:44:05.144Z,75.48
2018-12-08T17:46:33.493Z,75.46
2018-12-08T17:49:02.105Z,75.86
2018-12-08T17:51:31.181Z,75.65
2018-12-08T17:54:02.071Z,74.68
2018-12-08T17:56:30.989Z,74.77
2018-12-08T17:58:59.784Z,74.83
2018-12-08T18:01:28.409Z,75.91
2018-12-08T18:03:57.894Z,75.53
2018-12-08T18:06:26.190Z,75.60
2018-12-08T18:08:55.122Z,75.21
2018-12-08T18:11:23.437Z,75.75
2018-12-08T18:13:51.708Z,75.58
2018-12-08T18:16:20.000Z,75.82
2018-12-08T18:18:48.571Z,76.68
2018-12-08T18:21:17.216Z,76.14
2018-12-08T18:23:46.305Z,75.48
2018-12-08T18:26:14.798Z,75.76
2018-12-08T18:28:44.079Z,76.33
2018-12-08T18:31:13.002Z,76.50
2018-12-08T18:33:41.253Z,76.37
2018-12-08T18:36:10.241Z,77.03
2018-12-08T18:38:38.553Z,76.96
2018-12-08T18:41:06.832Z,76.54
2018-12-08T18:43:35.465Z,76.78
2018-12-08T18:46:03.857Z,76.60
2018-12-08T18:48:32.608Z,76.83
2018-12-08T18:51:01.126Z,76.71
2018-12-08T18:53:29.883Z,75.88
2018-12-08T18:55:58.258Z,75.44
2018-12-08T18:58:27.579Z,75.67
2018-12-08T19:00:56.419Z,75.24
2018-12-08T19:03:24.843Z,74.98
2018-12-08T19:05:53.345Z,75.29
2018-12-08T19:08:21.584Z,75.29
2018-12-08T19:10:49.912Z,74.42
2018-12-08T19:13:18.525Z,74.75
2018-12-08T19:15:47.099Z,74.51
2018-12-08T19:18:16.516Z,74.58
2018-12-08T19:20:44.959Z,74.50
2018-12-08T19:23:13.955Z,74.42
2018-12-08T19:25:43.307Z,74.77
2018-12-08T19:28:12.167Z,74.26
2018-12-08T19:30:41.216Z,73.62
2018-12-08T19:33:14.476Z,74.02
2018-12-08T19:35:41.743Z,74.29
2018-12-08T19:38:11.140Z,74.55
2018-12-08T19:40:39.498Z,73.79
2018-12-08T19:43:08.042Z,73.80
2018-12-08T19:45:37.102Z,73.85
2018-12-08T19:48:05.929Z,74.38
2018-12-08T19:50:34.599Z,74.12
2018-12-08T19:53:03.189Z,74.67
2018-12-08T19:55:32.247Z,74.71
2018-12-08T19:58:04.052Z,75.33
2018-12-08T20:00:33.150Z,76.34
2018-12-08T20:03:01.961Z,76.88
2018-12-08T20:05:30.573Z,76.95
2018-12-08T20:07:58.872Z,77.37
2018-12-08T20:10:27.200Z,77.46
2018-12-08T20:12:57.114Z,78.18
2018-12-08T20:15:25.537Z,77.94
2018-12-08T20:17:53.885Z,79.89
2018-12-08T20:20:22.424Z,80.14
2018-12-08T20:22:51.117Z,80.86
2018-12-08T20:25:20.276Z,80.80
2018-12-08T20:27:49.256Z,80.72
2018-12-08T20:30:17.829Z,80.35
2018-12-08T20:32:46.189Z,80.32
2018-12-08T20:35:15.260Z,80.37
2018-12-08T20:37:43.644Z,81.02
2018-12-08T20:40:11.951Z,80.50
2018-12-08T20:42:40.583Z,81.62
2018-12-08T20:45:08.926Z,81.77
2018-12-08T20:47:37.197Z,81.44
2018-12-08T20:50:06.833Z,81.72
2018-12-08T20:52:35.118Z,81.17
2018-12-08T20:55:03.903Z,82.01
2018-12-08T20:57:32.230Z,82.77
2018-12-08T21:00:00.693Z,83.34
2018-12-08T21:02:28.919Z,82.69
2018-12-08T21:04:57.505Z,83.52
2018-12-08T21:07:26.093Z,83.81
2018-12-08T21:09:54.378Z,82.91
2018-12-08T21:12:22.564Z,82.78
2018-12-08T21:14:51.201Z,82.94
2018-12-08T21:17:19.940Z,83.11
2018-12-08T21:19:48.703Z,83.09
2018-12-08T21:22:17.292Z,82.87
2018-12-08T21:24:45.941Z,82.61
2018-12-08T21:27:14.228Z,81.77
2018-12-08T21:29:42.577Z,81.99
2018-12-08T21:32:11.109Z,81.87
2018-12-08T21:34:39.826Z,82.08
2018-12-08T21:37:08.026Z,81.12
2018-12-08T21:39:36.509Z,81.56
2018-12-08T21:42:05.001Z,81.77
2018-12-08T21:44:33.563Z,81.25
2018-12-08T21:47:02.185Z,80.83
2018-12-08T21:49:30.805Z,80.64
2018-12-08T21:51:59.648Z,80.72
2018-12-08T21:54:45.605Z,81.62
2018-12-08T21:57:14.009Z,81.59
2018-12-08T21:59:42.332Z,82.41
2018-12-08T22:02:10.601Z,82.95
2018-12-08T22:04:38.949Z,84.19
2018-12-08T22:07:07.578Z,84.71
2018-12-08T22:09:36.195Z,85.34
2018-12-08T22:12:04.599Z,85.64
2018-12-08T22:14:35.276Z,86.08
2018-12-08T22:17:03.461Z,86.34
2018-12-08T22:19:31.760Z,86.02
2018-12-08T22:22:00.223Z,86.46
2018-12-08T22:24:29.873Z,85.56
2018-12-08T22:26:58.204Z,85.01
2018-12-08T22:29:26.473Z,84.43
2018-12-08T22:31:54.992Z,84.79
2018-12-08T22:34:24.278Z,83.83
2018-12-08T22:36:52.723Z,83.08
2018-12-08T22:39:21.037Z,83.58
2018-12-08T22:41:49.447Z,83.34
2018-12-08T22:44:17.717Z,83.07
2018-12-08T22:46:46.054Z,82.97
2018-12-08T22:49:14.691Z,82.77
2018-12-08T22:51:43.251Z,82.93
2018-12-08T22:54:11.629Z,83.17
2018-12-08T22:56:39.911Z,83.21
2018-12-08T22:59:09.249Z,82.17
2018-12-08T23:01:37.576Z,81.80
2018-12-08T23:04:06.065Z,81.81
2018-12-08T23:06:34.575Z,81.46
2018-12-08T23:09:04.154Z,81.16
2018-12-08T23:11:32.393Z,80.50
2018-12-08T23:14:01.048Z,79.84
2018-12-08T23:16:30.510Z,79.46
2018-12-08T23:18:59.136Z,79.15
2018-12-08T23:21:27.619Z,78.95
2018-12-08T23:23:55.888Z,79.55
2018-12-08T23:26:24.621Z,79.90
2018-12-08T23:28:52.875Z,80.40
2018-12-08T23:31:21.355Z,81.52
2018-12-08T23:33:49.730Z,81.98
2018-12-08T23:36:18.208Z,83.16
2018-12-08T23:38:46.429Z,82.13
2018-12-08T23:41:14.760Z,82.80
2018-12-08T23:43:43.380Z,82.63
2018-12-08T23:46:11.690Z,81.33
2018-12-08T23:48:40.658Z,80.95
2018-12-08T23:51:11.310Z,80.67
2018-12-08T23:53:41.628Z,81.19
2018-12-08T23:56:11.632Z,81.15
2018-12-08T23:58:43.432Z,81.32
